createdAt,value
2019-05-20T00:00:19.231Z,305.10
2019-05-20T00:01:19.226Z,304.96
2019-05-20T00:02:24.661Z,305.90
2019-05-20T00:03:20.201Z,305.81
2019-05-20T00:04:19.209Z,305.97
2019-05-20T00:05:19.176Z,305.10
2019-05-20T00:06:19.156Z,305.96
2019-05-20T00:07:19.163Z,305.51
2019-05-20T00:08:19.140Z,305.99
2019-05-20T00:09:19.139Z,305.37
2019-05-20T00:10:19.136Z,306.18
2019-05-20T00:11:19.117Z,305.82
2019-05-20T00:12:19.117Z,305.37
2019-05-20T00:13:19.094Z,305.82
2019-05-20T00:14:19.087Z,306.13
2019-05-20T00:15:19.081Z,305.23
2019-05-20T00:16:19.059Z,305.58
2019-05-20T00:17:19.052Z,305.52
2019-05-20T00:18:19.026Z,305.55
2019-05-20T00:19:19.013Z,305.67
2019-05-20T00:20:19.004Z,305.22
2019-05-20T00:21:19.007Z,305.88
2019-05-20T00:22:18.997Z,305.70
2019-05-20T00:23:18.995Z,306.07
2019-05-20T00:24:18.981Z,305.86
2019-05-20T00:25:18.961Z,305.45
2019-05-20T00:26:18.945Z,305.64
2019-05-20T00:27:18.946Z,305.71
2019-05-20T00:28:18.933Z,305.31
2019-05-20T00:29:18.911Z,305.67
2019-05-20T00:30:18.906Z,305.55
2019-05-20T00:31:18.883Z,305.90
2019-05-20T00:32:18.891Z,305.86
2019-05-20T00:33:18.888Z,305.43
2019-05-20T00:34:32.676Z,305.79
2019-05-20T00:35:19.850Z,305.63
2019-05-20T00:36:18.842Z,305.62
2019-05-20T00:37:18.838Z,305.85
2019-05-20T00:38:18.821Z,305.86
2019-05-20T00:39:18.797Z,305.84
2019-05-20T00:40:18.789Z,306.48
2019-05-20T00:41:18.799Z,305.61
2019-05-20T00:42:18.809Z,305.61
2019-05-20T00:43:18.755Z,306.00
2019-05-20T00:44:18.750Z,305.97
2019-05-20T00:45:18.756Z,305.68
2019-05-20T00:46:18.739Z,305.90
2019-05-20T00:47:18.735Z,306.23
2019-05-20T00:48:18.729Z,305.54
2019-05-20T00:49:18.687Z,305.63
2019-05-20T00:50:18.681Z,305.64
2019-05-20T00:51:18.661Z,305.38
2019-05-20T00:52:18.674Z,305.63
2019-05-20T00:53:18.672Z,305.97
2019-05-20T00:54:18.653Z,305.84
2019-05-20T00:55:18.639Z,305.27
2019-05-20T00:56:18.633Z,305.09
2019-05-20T00:57:18.619Z,305.73
2019-05-20T00:58:18.619Z,305.97
2019-05-20T00:59:18.595Z,305.91
2019-05-20T01:00:18.583Z,305.75
2019-05-20T01:01:18.557Z,305.89
2019-05-20T01:02:18.536Z,305.99
2019-05-20T01:03:18.544Z,305.38
2019-05-20T01:04:18.529Z,306.02
2019-05-20T01:05:18.522Z,306.02
2019-05-20T01:06:18.505Z,305.88
2019-05-20T01:07:18.500Z,305.76
2019-05-20T01:08:18.508Z,305.97
2019-05-20T01:09:18.480Z,305.18
2019-05-20T01:10:18.462Z,306.32
2019-05-20T01:11:18.446Z,305.40
2019-05-20T01:12:18.467Z,305.92
2019-05-20T01:13:18.442Z,305.45
2019-05-20T01:14:18.459Z,305.63
2019-05-20T01:15:18.404Z,305.48
2019-05-20T01:16:18.401Z,305.73
2019-05-20T01:17:18.386Z,305.27
2019-05-20T01:18:18.401Z,305.85
2019-05-20T01:19:18.376Z,305.87
2019-05-20T01:20:18.357Z,305.83
2019-05-20T01:21:18.338Z,305.09
2019-05-20T01:22:18.322Z,305.49
2019-05-20T01:23:18.332Z,305.78
2019-05-20T01:24:18.308Z,305.70
2019-05-20T01:25:18.307Z,305.43
2019-05-20T01:26:18.295Z,305.67
2019-05-20T01:27:18.289Z,305.35
2019-05-20T01:28:18.283Z,305.91
2019-05-20T01:29:18.246Z,305.63
2019-05-20T01:30:18.244Z,305.72
2019-05-20T01:31:18.248Z,305.79
2019-05-20T01:32:18.229Z,305.68
2019-05-20T01:33:18.219Z,305.92
2019-05-20T01:34:18.189Z,305.48
2019-05-20T01:35:18.192Z,305.49
2019-05-20T01:36:18.191Z,305.90
2019-05-20T01:37:18.180Z,305.61
2019-05-20T01:38:18.178Z,305.71
2019-05-20T01:39:18.217Z,305.63
2019-05-20T01:40:18.141Z,305.76
2019-05-20T01:41:18.203Z,306.27
2019-05-20T01:42:18.111Z,305.90
2019-05-20T01:43:18.123Z,305.16
2019-05-20T01:44:18.098Z,305.93
2019-05-20T01:45:18.085Z,305.87
2019-05-20T01:46:18.070Z,305.87
2019-05-20T01:47:18.066Z,305.94
2019-05-20T01:48:18.070Z,305.69
2019-05-20T01:49:18.037Z,305.88
2019-05-20T01:50:18.044Z,305.28
2019-05-20T01:51:18.016Z,305.23
2019-05-20T01:52:18.034Z,305.66
2019-05-20T01:53:18.007Z,306.03
2019-05-20T01:54:17.970Z,305.84
2019-05-20T01:55:17.971Z,306.03
2019-05-20T01:56:17.951Z,305.80
2019-05-20T01:57:17.951Z,306.21
2019-05-20T01:58:17.978Z,305.74
2019-05-20T01:59:17.931Z,305.77
2019-05-20T02:00:17.919Z,305.38
2019-05-20T02:01:17.953Z,305.83
2019-05-20T02:02:17.949Z,305.80
2019-05-20T02:03:30.931Z,305.47
2019-05-20T02:04:18.884Z,305.71
2019-05-20T02:05:17.890Z,305.33
2019-05-20T02:06:17.840Z,305.56
2019-05-20T02:07:17.878Z,305.94
2019-05-20T02:08:17.822Z,305.35
2019-05-20T02:09:17.836Z,305.33
2019-05-20T02:10:17.810Z,305.70
2019-05-20T02:11:17.790Z,305.92
2019-05-20T02:12:17.791Z,305.50
2019-05-20T02:13:17.773Z,306.00
2019-05-20T02:14:17.827Z,305.91
2019-05-20T02:15:17.747Z,305.72
2019-05-20T02:16:17.733Z,305.87
2019-05-20T02:17:17.721Z,305.75
2019-05-20T02:18:17.720Z,305.98
2019-05-20T02:19:17.731Z,305.69
2019-05-20T02:20:17.689Z,305.74
2019-05-20T02:21:17.686Z,305.45
2019-05-20T02:22:17.674Z,305.46
2019-05-20T02:23:17.664Z,305.55
2019-05-20T02:24:17.669Z,305.81
2019-05-20T02:25:17.659Z,305.70
2019-05-20T02:26:17.620Z,305.37
2019-05-20T02:27:17.613Z,306.34
2019-05-20T02:28:17.611Z,305.58
2019-05-20T02:29:17.621Z,305.64
2019-05-20T02:30:17.579Z,305.65
2019-05-20T02:31:17.578Z,305.43
2019-05-20T02:32:17.570Z,305.52
2019-05-20T02:33:17.563Z,305.47
2019-05-20T02:34:17.549Z,305.81
2019-05-20T02:35:17.543Z,305.66
2019-05-20T02:36:17.518Z,305.40
2019-05-20T02:37:17.499Z,305.64
2019-05-20T02:38:17.501Z,305.70
2019-05-20T02:39:17.493Z,304.94
2019-05-20T02:40:17.480Z,305.52
2019-05-20T02:41:17.469Z,305.35
2019-05-20T02:42:17.458Z,305.84
2019-05-20T02:43:17.441Z,305.51
2019-05-20T02:44:17.457Z,305.55
2019-05-20T02:45:17.415Z,305.44
2019-05-20T02:46:17.402Z,305.59
2019-05-20T02:47:17.407Z,305.28
2019-05-20T02:48:17.380Z,305.92
2019-05-20T02:49:17.392Z,305.63
2019-05-20T02:50:17.377Z,305.74
2019-05-20T02:51:17.348Z,305.43
2019-05-20T02:52:17.334Z,305.47
2019-05-20T02:53:17.338Z,305.53
2019-05-20T02:54:17.338Z,305.35
2019-05-20T02:55:17.319Z,305.25
2019-05-20T02:56:17.310Z,305.54
2019-05-20T02:57:17.295Z,305.34
2019-05-20T02:58:17.272Z,305.32
2019-05-20T02:59:17.283Z,305.52
2019-05-20T03:00:17.250Z,305.72
2019-05-20T03:01:17.247Z,305.65
2019-05-20T03:02:17.231Z,305.35
2019-05-20T03:03:17.237Z,306.04
2019-05-20T03:04:17.231Z,305.68
2019-05-20T03:05:17.208Z,305.62
2019-05-20T03:06:17.174Z,305.19
2019-05-20T03:07:17.173Z,305.68
2019-05-20T03:08:17.173Z,305.65
2019-05-20T03:09:17.163Z,305.65
2019-05-20T03:10:17.137Z,305.77
2019-05-20T03:11:17.122Z,305.35
2019-05-20T03:12:17.123Z,305.75
2019-05-20T03:13:17.120Z,305.54
2019-05-20T03:14:17.117Z,305.24
2019-05-20T03:15:17.086Z,305.63
2019-05-20T03:16:17.087Z,305.75
2019-05-20T03:17:17.067Z,305.76
2019-05-20T03:18:17.058Z,305.90
2019-05-20T03:19:17.051Z,306.06
2019-05-20T03:20:17.040Z,305.53
2019-05-20T03:21:17.025Z,305.67
2019-05-20T03:22:17.019Z,305.51
2019-05-20T03:23:17.014Z,306.09
2019-05-20T03:24:16.999Z,305.67
2019-05-20T03:25:16.983Z,305.58
2019-05-20T03:26:16.980Z,305.89
2019-05-20T03:27:16.966Z,305.85
2019-05-20T03:28:16.942Z,305.42
2019-05-20T03:29:16.941Z,305.69
2019-05-20T03:30:16.919Z,305.14
2019-05-20T03:31:16.918Z,305.43
2019-05-20T03:32:16.895Z,305.02
2019-05-20T03:33:16.888Z,305.33
2019-05-20T03:34:41.690Z,305.65
2019-05-20T03:35:17.916Z,305.55
2019-05-20T03:36:16.857Z,305.26
2019-05-20T03:37:16.846Z,305.66
2019-05-20T03:38:16.856Z,305.97
2019-05-20T03:39:16.837Z,305.97
2019-05-20T03:40:16.857Z,305.62
2019-05-20T03:41:16.806Z,305.81
2019-05-20T03:42:16.790Z,305.56
2019-05-20T03:43:16.780Z,306.26
2019-05-20T03:44:16.777Z,305.91
2019-05-20T03:45:16.784Z,305.79
2019-05-20T03:46:16.755Z,305.96
2019-05-20T03:47:16.754Z,305.48
2019-05-20T03:48:16.734Z,305.90
2019-05-20T03:49:16.734Z,305.79
2019-05-20T03:50:16.708Z,305.29
2019-05-20T03:51:16.685Z,306.01
2019-05-20T03:52:16.683Z,306.30
2019-05-20T03:53:16.674Z,305.80
2019-05-20T03:54:16.655Z,305.79
2019-05-20T03:55:16.668Z,306.23
2019-05-20T03:56:16.628Z,305.85
2019-05-20T03:57:16.626Z,306.26
2019-05-20T03:58:16.618Z,306.00
2019-05-20T03:59:16.610Z,306.06
2019-05-20T04:00:16.601Z,306.56
2019-05-20T04:01:16.577Z,305.84
2019-05-20T04:02:16.581Z,305.75
2019-05-20T04:03:16.556Z,305.62
2019-05-20T04:04:16.548Z,305.71
2019-05-20T04:05:16.563Z,305.81
2019-05-20T04:06:16.544Z,306.52
2019-05-20T04:07:16.514Z,305.91
2019-05-20T04:08:16.520Z,306.21
2019-05-20T04:09:16.486Z,306.11
2019-05-20T04:10:16.480Z,306.01
2019-05-20T04:11:16.475Z,305.82
2019-05-20T04:12:16.472Z,306.02
2019-05-20T04:13:16.445Z,305.97
2019-05-20T04:14:16.455Z,305.82
2019-05-20T04:15:16.431Z,306.25
2019-05-20T04:16:16.423Z,306.22
2019-05-20T04:17:16.413Z,305.45
2019-05-20T04:18:16.419Z,306.10
2019-05-20T04:19:16.396Z,306.06
2019-05-20T04:20:16.407Z,305.99
2019-05-20T04:21:16.357Z,305.60
2019-05-20T04:22:16.348Z,306.62
2019-05-20T04:23:16.342Z,306.06
2019-05-20T04:24:16.325Z,306.17
2019-05-20T04:25:16.333Z,305.80
2019-05-20T04:26:16.321Z,305.63
2019-05-20T04:27:16.287Z,306.45
2019-05-20T04:28:16.274Z,306.56
2019-05-20T04:29:16.284Z,306.10
2019-05-20T04:30:18.828Z,306.07
2019-05-20T04:31:16.256Z,306.05
2019-05-20T04:32:16.243Z,305.95
2019-05-20T04:33:16.226Z,306.14
2019-05-20T04:34:16.211Z,306.04
2019-05-20T04:35:22.281Z,305.81
2019-05-20T04:36:17.193Z,306.05
2019-05-20T04:37:16.202Z,306.41
2019-05-20T04:38:16.181Z,306.12
2019-05-20T04:39:16.167Z,306.28
2019-05-20T04:40:16.154Z,306.36
2019-05-20T04:41:16.131Z,305.97
2019-05-20T04:42:16.133Z,306.61
2019-05-20T04:43:16.136Z,306.18
2019-05-20T04:44:16.112Z,306.10
2019-05-20T04:45:16.105Z,305.97
2019-05-20T04:46:16.101Z,306.12
2019-05-20T04:47:16.080Z,306.19
2019-05-20T04:48:16.061Z,305.65
2019-05-20T04:49:16.050Z,306.34
2019-05-20T04:50:16.062Z,306.19
2019-05-20T04:51:16.034Z,305.54
2019-05-20T04:52:16.025Z,305.98
2019-05-20T04:53:15.998Z,306.28
2019-05-20T04:54:15.987Z,305.66
2019-05-20T04:55:15.996Z,306.51
2019-05-20T04:56:15.990Z,306.61
2019-05-20T04:57:15.963Z,305.87
2019-05-20T04:58:15.954Z,306.35
2019-05-20T04:59:15.938Z,306.05
2019-05-20T05:00:15.947Z,305.88
2019-05-20T05:01:15.915Z,306.04
2019-05-20T05:02:15.913Z,306.12
2019-05-20T05:03:15.897Z,306.23
2019-05-20T05:04:15.896Z,306.19
2019-05-20T05:05:15.883Z,305.71
2019-05-20T05:06:15.867Z,306.39
2019-05-20T05:07:15.852Z,306.12
2019-05-20T05:08:15.836Z,306.01
2019-05-20T05:09:15.875Z,305.47
2019-05-20T05:10:15.833Z,305.71
2019-05-20T05:11:15.819Z,306.16
2019-05-20T05:12:15.800Z,305.65
2019-05-20T05:13:15.780Z,305.30
2019-05-20T05:14:15.771Z,305.16
2019-05-20T05:15:15.773Z,306.28
2019-05-20T05:16:15.756Z,305.37
2019-05-20T05:17:15.750Z,306.27
2019-05-20T05:18:15.727Z,305.70
2019-05-20T05:19:15.724Z,305.79
2019-05-20T05:20:18.500Z,305.69
2019-05-20T05:21:15.704Z,305.92
2019-05-20T05:22:15.687Z,305.94
2019-05-20T05:23:15.677Z,306.01
2019-05-20T05:24:15.665Z,306.48
2019-05-20T05:25:15.644Z,305.82
2019-05-20T05:26:15.642Z,306.32
2019-05-20T05:27:15.645Z,305.87
2019-05-20T05:28:15.629Z,306.35
2019-05-20T05:29:15.610Z,306.30
2019-05-20T05:30:15.589Z,306.06
2019-05-20T05:31:15.583Z,306.04
2019-05-20T05:32:15.597Z,306.03
2019-05-20T05:33:15.577Z,306.09
2019-05-20T05:34:15.556Z,305.98
2019-05-20T05:35:15.547Z,306.27
2019-05-20T05:36:15.545Z,305.92
2019-05-20T05:37:15.511Z,306.03
2019-05-20T05:38:15.572Z,305.56
2019-05-20T05:39:15.492Z,306.35
2019-05-20T05:40:15.491Z,306.50
2019-05-20T05:41:15.494Z,305.95
2019-05-20T05:42:15.515Z,306.05
2019-05-20T05:43:15.453Z,305.85
2019-05-20T05:44:15.462Z,306.02
2019-05-20T05:45:15.431Z,305.73
2019-05-20T05:46:15.439Z,306.14
2019-05-20T05:47:15.401Z,305.73
2019-05-20T05:48:15.412Z,306.15
2019-05-20T05:49:15.395Z,305.49
2019-05-20T05:50:15.366Z,306.02
2019-05-20T05:51:15.370Z,306.27
2019-05-20T05:52:15.354Z,305.97
2019-05-20T05:53:15.354Z,305.99
2019-05-20T05:54:15.340Z,306.16
2019-05-20T05:55:15.322Z,306.57
2019-05-20T05:56:15.410Z,305.96
2019-05-20T05:57:15.311Z,306.87
2019-05-20T05:58:15.296Z,306.73
2019-05-20T05:59:15.271Z,306.26
2019-05-20T06:00:15.302Z,306.52
2019-05-20T06:01:15.277Z,306.61
2019-05-20T06:02:15.276Z,306.51
2019-05-20T06:03:15.242Z,306.65
2019-05-20T06:04:15.217Z,306.83
2019-05-20T06:05:15.215Z,306.92
2019-05-20T06:06:15.226Z,307.05
2019-05-20T06:07:15.203Z,306.70
2019-05-20T06:08:15.186Z,307.59
2019-05-20T06:09:15.177Z,306.94
2019-05-20T06:10:15.149Z,306.45
2019-05-20T06:11:15.155Z,306.77
2019-05-20T06:12:15.129Z,306.98
2019-05-20T06:13:15.120Z,306.98
2019-05-20T06:14:15.116Z,306.44
2019-05-20T06:15:15.118Z,306.38
2019-05-20T06:16:15.118Z,306.36
2019-05-20T06:17:15.079Z,306.84
2019-05-20T06:18:15.070Z,306.44
2019-05-20T06:19:15.068Z,306.46
2019-05-20T06:20:15.056Z,306.64
2019-05-20T06:21:15.188Z,307.27
2019-05-20T06:22:15.020Z,306.82
2019-05-20T06:23:15.001Z,306.62
2019-05-20T06:24:15.000Z,306.84
2019-05-20T06:25:15.032Z,306.77
2019-05-20T06:26:15.042Z,307.26
2019-05-20T06:27:14.972Z,306.91
2019-05-20T06:28:14.969Z,307.11
2019-05-20T06:29:14.942Z,307.53
2019-05-20T06:30:14.971Z,307.57
2019-05-20T06:31:14.962Z,307.71
2019-05-20T06:32:15.207Z,308.23
2019-05-20T06:33:14.908Z,307.40
2019-05-20T06:34:15.029Z,307.94
2019-05-20T06:35:15.052Z,307.83
2019-05-20T06:36:26.384Z,307.49
2019-05-20T06:37:15.863Z,307.62
2019-05-20T06:38:14.864Z,307.29
2019-05-20T06:39:14.843Z,307.16
2019-05-20T06:40:14.839Z,306.92
2019-05-20T06:41:14.823Z,306.97
2019-05-20T06:42:14.816Z,307.43
2019-05-20T06:43:14.806Z,307.48
2019-05-20T06:44:14.786Z,306.76
2019-05-20T06:45:14.782Z,307.10
2019-05-20T06:46:14.786Z,307.15
2019-05-20T06:47:14.756Z,307.02
2019-05-20T06:48:14.749Z,306.97
2019-05-20T06:49:14.736Z,306.95
2019-05-20T06:50:14.723Z,306.84
2019-05-20T06:51:14.729Z,306.63
2019-05-20T06:52:14.723Z,307.34
2019-05-20T06:53:14.691Z,306.22
2019-05-20T06:54:14.691Z,306.32
2019-05-20T06:55:14.674Z,306.70
2019-05-20T06:56:14.694Z,306.05
2019-05-20T06:57:14.747Z,306.52
2019-05-20T06:58:14.659Z,306.79
2019-05-20T06:59:14.640Z,306.17
2019-05-20T07:00:14.632Z,306.51
2019-05-20T07:01:14.611Z,306.12
2019-05-20T07:02:14.608Z,306.53
2019-05-20T07:03:14.586Z,307.18
2019-05-20T07:04:14.577Z,306.89
2019-05-20T07:05:14.569Z,306.53
2019-05-20T07:06:14.566Z,306.24
2019-05-20T07:07:20.811Z,306.76
2019-05-20T07:08:15.529Z,306.13
2019-05-20T07:09:14.527Z,305.95
2019-05-20T07:10:14.518Z,305.65
2019-05-20T07:11:14.513Z,306.12
2019-05-20T07:12:14.522Z,305.87
2019-05-20T07:13:16.351Z,305.62
2019-05-20T07:14:14.494Z,305.94
2019-05-20T07:15:14.455Z,306.55
2019-05-20T07:16:14.475Z,305.52
2019-05-20T07:17:14.446Z,306.04
2019-05-20T07:18:14.519Z,305.68
2019-05-20T07:19:14.425Z,305.03
2019-05-20T07:20:14.416Z,305.19
2019-05-20T07:21:14.394Z,305.22
2019-05-20T07:22:14.397Z,305.41
2019-05-20T07:23:14.386Z,305.44
2019-05-20T07:24:14.393Z,305.15
2019-05-20T07:25:14.357Z,305.75
2019-05-20T07:26:14.339Z,304.91
2019-05-20T07:27:14.349Z,305.09
2019-05-20T07:28:14.331Z,305.00
2019-05-20T07:29:14.331Z,305.45
2019-05-20T07:30:15.404Z,305.41
2019-05-20T07:31:14.315Z,305.25
2019-05-20T07:32:14.314Z,304.83
2019-05-20T07:33:14.284Z,305.27
2019-05-20T07:34:14.271Z,305.27
2019-05-20T07:35:28.748Z,304.49
2019-05-20T07:36:15.249Z,304.29
2019-05-20T07:37:14.253Z,304.58
2019-05-20T07:38:14.245Z,304.54
2019-05-20T07:39:14.219Z,303.95
2019-05-20T07:40:14.216Z,304.08
2019-05-20T07:41:14.217Z,303.98
2019-05-20T07:42:14.215Z,303.14
2019-05-20T07:43:14.191Z,302.98
2019-05-20T07:44:14.202Z,303.06
2019-05-20T07:45:14.160Z,302.44
2019-05-20T07:46:14.149Z,302.26
2019-05-20T07:47:14.157Z,301.88
2019-05-20T07:48:14.134Z,300.91
2019-05-20T07:49:14.134Z,301.13
2019-05-20T07:50:14.135Z,301.26
2019-05-20T07:51:14.130Z,300.85
2019-05-20T07:52:14.164Z,300.69
2019-05-20T07:53:14.088Z,301.40
2019-05-20T07:54:14.076Z,300.74
2019-05-20T07:55:14.077Z,300.92
2019-05-20T07:56:14.069Z,300.58
2019-05-20T07:57:14.097Z,301.03
2019-05-20T07:58:14.041Z,301.45
2019-05-20T07:59:14.030Z,301.38
2019-05-20T08:00:14.038Z,300.88
2019-05-20T08:01:14.022Z,301.08
2019-05-20T08:02:14.060Z,301.72
2019-05-20T08:03:14.005Z,301.25
2019-05-20T08:04:14.028Z,301.43
2019-05-20T08:05:13.990Z,302.44
2019-05-20T08:06:13.965Z,301.87
2019-05-20T08:07:27.460Z,302.78
2019-05-20T08:08:14.953Z,301.94
2019-05-20T08:09:13.932Z,302.42
2019-05-20T08:10:13.921Z,302.61
2019-05-20T08:11:13.918Z,302.73
2019-05-20T08:12:13.954Z,302.12
2019-05-20T08:13:13.895Z,301.82
2019-05-20T08:14:13.881Z,302.13
2019-05-20T08:15:13.877Z,302.59
2019-05-20T08:16:13.866Z,302.12
2019-05-20T08:17:13.904Z,301.28
2019-05-20T08:18:13.857Z,301.95
2019-05-20T08:19:13.847Z,300.64
2019-05-20T08:20:13.829Z,301.42
2019-05-20T08:21:13.859Z,301.04
2019-05-20T08:22:13.841Z,300.55
2019-05-20T08:23:13.798Z,301.50
2019-05-20T08:24:13.817Z,301.02
2019-05-20T08:25:13.788Z,301.47
2019-05-20T08:26:13.783Z,301.67
2019-05-20T08:27:13.783Z,301.27
2019-05-20T08:28:13.744Z,301.33
2019-05-20T08:29:13.741Z,301.39
2019-05-20T08:30:14.268Z,300.95
2019-05-20T08:31:13.729Z,301.69
2019-05-20T08:32:13.721Z,301.09
2019-05-20T08:33:13.728Z,301.61
2019-05-20T08:34:13.700Z,301.57
2019-05-20T08:35:13.679Z,300.70
2019-05-20T08:36:13.670Z,300.87
2019-05-20T08:37:13.762Z,301.17
2019-05-20T08:38:13.673Z,301.70
2019-05-20T08:39:13.661Z,301.03
2019-05-20T08:40:13.654Z,301.11
2019-05-20T08:41:13.629Z,301.21
2019-05-20T08:42:13.618Z,301.64
2019-05-20T08:43:13.640Z,301.58
2019-05-20T08:44:13.618Z,301.90
2019-05-20T08:45:13.588Z,301.69
2019-05-20T08:46:13.589Z,301.03
2019-05-20T08:47:13.571Z,301.59
2019-05-20T08:48:13.569Z,301.34
2019-05-20T08:49:13.566Z,301.08
2019-05-20T08:50:16.214Z,300.90
2019-05-20T08:51:13.534Z,300.83
2019-05-20T08:52:13.530Z,300.61
2019-05-20T08:53:13.536Z,300.19
2019-05-20T08:54:13.507Z,300.49
2019-05-20T08:55:13.497Z,300.95
2019-05-20T08:56:13.511Z,300.35
2019-05-20T08:57:13.488Z,300.09
2019-05-20T08:58:13.493Z,300.16
2019-05-20T08:59:13.456Z,299.79
2019-05-20T09:00:13.452Z,299.20
2019-05-20T09:01:13.445Z,299.70
2019-05-20T09:02:13.449Z,299.50
2019-05-20T09:03:13.449Z,299.85
2019-05-20T09:04:13.461Z,299.58
2019-05-20T09:05:13.397Z,299.57
2019-05-20T09:06:13.411Z,299.23
2019-05-20T09:07:13.380Z,299.83
2019-05-20T09:08:13.389Z,298.78
2019-05-20T09:09:13.384Z,299.61
2019-05-20T09:10:13.365Z,299.26
2019-05-20T09:11:13.386Z,299.21
2019-05-20T09:12:13.362Z,299.36
2019-05-20T09:13:13.354Z,298.84
2019-05-20T09:14:13.329Z,299.00
2019-05-20T09:15:13.330Z,298.30
2019-05-20T09:16:13.314Z,299.38
2019-05-20T09:17:13.306Z,298.52
2019-05-20T09:18:13.299Z,298.82
2019-05-20T09:19:13.301Z,298.87
2019-05-20T09:20:13.285Z,299.03
2019-05-20T09:21:13.486Z,298.47
2019-05-20T09:22:13.266Z,298.42
2019-05-20T09:23:13.283Z,298.79
2019-05-20T09:24:13.239Z,299.05
2019-05-20T09:25:13.306Z,298.37
2019-05-20T09:26:13.224Z,299.41
2019-05-20T09:27:13.212Z,298.79
2019-05-20T09:28:13.226Z,298.67
2019-05-20T09:29:13.196Z,298.84
2019-05-20T09:30:13.211Z,298.42
2019-05-20T09:31:13.375Z,298.05
2019-05-20T09:32:13.171Z,298.13
2019-05-20T09:33:13.204Z,297.98
2019-05-20T09:34:13.170Z,298.71
2019-05-20T09:35:13.146Z,298.36
2019-05-20T09:36:13.134Z,298.33
2019-05-20T09:37:13.124Z,298.36
2019-05-20T09:38:20.007Z,298.43
2019-05-20T09:39:14.139Z,298.33
2019-05-20T09:40:13.088Z,298.77
2019-05-20T09:41:13.116Z,298.33
2019-05-20T09:42:13.072Z,299.08
2019-05-20T09:43:13.088Z,298.75
2019-05-20T09:44:13.059Z,298.78
2019-05-20T09:45:13.042Z,298.34
2019-05-20T09:46:13.038Z,298.90
2019-05-20T09:47:13.030Z,297.86
2019-05-20T09:48:13.037Z,298.41
2019-05-20T09:49:13.013Z,297.83
2019-05-20T09:50:12.989Z,297.52
2019-05-20T09:51:12.996Z,297.36
2019-05-20T09:52:12.983Z,296.81
2019-05-20T09:53:13.006Z,297.19
2019-05-20T09:54:12.966Z,296.80
2019-05-20T09:55:12.963Z,296.04
2019-05-20T09:56:12.958Z,296.00
2019-05-20T09:57:12.934Z,295.90
2019-05-20T09:58:12.937Z,295.80
2019-05-20T09:59:16.218Z,295.58
2019-05-20T10:00:12.900Z,295.87
2019-05-20T10:01:12.907Z,296.45
2019-05-20T10:02:12.896Z,296.96
2019-05-20T10:03:12.902Z,296.80
2019-05-20T10:04:12.876Z,297.46
2019-05-20T10:05:12.866Z,297.57
2019-05-20T10:06:12.864Z,298.03
2019-05-20T10:07:12.851Z,297.28
2019-05-20T10:08:12.846Z,296.65
2019-05-20T10:09:12.845Z,297.05
2019-05-20T10:10:12.818Z,296.74
2019-05-20T10:11:12.814Z,296.54
2019-05-20T10:12:12.791Z,297.76
2019-05-20T10:13:12.815Z,297.31
2019-05-20T10:14:12.803Z,296.55
2019-05-20T10:15:12.779Z,296.73
2019-05-20T10:16:12.764Z,297.19
2019-05-20T10:17:12.755Z,297.15
2019-05-20T10:18:12.743Z,297.00
2019-05-20T10:19:12.756Z,298.46
2019-05-20T10:20:12.742Z,297.26
2019-05-20T10:21:12.713Z,297.79
2019-05-20T10:22:12.711Z,297.37
2019-05-20T10:23:15.743Z,297.82
2019-05-20T10:24:12.686Z,298.36
2019-05-20T10:25:12.737Z,298.42
2019-05-20T10:26:12.672Z,298.27
2019-05-20T10:27:12.674Z,298.13
2019-05-20T10:28:12.671Z,298.10
2019-05-20T10:29:12.651Z,298.25
2019-05-20T10:30:12.684Z,297.71
2019-05-20T10:31:12.633Z,298.51
2019-05-20T10:32:12.620Z,297.63
2019-05-20T10:33:12.621Z,297.75
2019-05-20T10:34:12.619Z,298.19
2019-05-20T10:35:12.607Z,298.12
2019-05-20T10:36:12.585Z,298.40
2019-05-20T10:37:12.596Z,298.28
2019-05-20T10:38:12.597Z,297.29
2019-05-20T10:39:12.596Z,297.05
2019-05-20T10:40:12.552Z,297.03
2019-05-20T10:41:12.552Z,296.16
2019-05-20T10:42:12.529Z,296.52
2019-05-20T10:43:12.532Z,295.56
2019-05-20T10:44:12.537Z,296.40
2019-05-20T10:45:12.535Z,296.78
2019-05-20T10:46:12.505Z,296.78
2019-05-20T10:47:12.492Z,296.78
2019-05-20T10:48:12.485Z,296.73
2019-05-20T10:49:12.488Z,296.59
2019-05-20T10:50:12.468Z,296.71
2019-05-20T10:51:12.472Z,297.05
2019-05-20T10:52:12.452Z,296.89
2019-05-20T10:53:12.453Z,297.59
2019-05-20T10:54:12.442Z,297.77
2019-05-20T10:55:12.407Z,298.07
2019-05-20T10:56:12.798Z,297.48
2019-05-20T10:57:12.401Z,298.02
2019-05-20T10:58:12.396Z,297.90
2019-05-20T10:59:12.669Z,297.28
2019-05-20T11:00:12.384Z,296.90
2019-05-20T11:01:12.382Z,296.74
2019-05-20T11:02:12.361Z,296.40
2019-05-20T11:03:12.338Z,295.81
2019-05-20T11:04:12.336Z,296.23
2019-05-20T11:05:12.335Z,295.76
2019-05-20T11:06:12.566Z,295.26
2019-05-20T11:07:12.313Z,295.65
2019-05-20T11:08:12.294Z,295.50
2019-05-20T11:09:14.441Z,295.20
2019-05-20T11:10:12.278Z,295.58
2019-05-20T11:11:14.452Z,295.08
2019-05-20T11:12:12.262Z,293.86
2019-05-20T11:13:12.243Z,294.08
2019-05-20T11:14:12.245Z,294.85
2019-05-20T11:15:12.230Z,294.63
2019-05-20T11:16:12.231Z,293.85
2019-05-20T11:17:14.982Z,294.66
2019-05-20T11:18:12.197Z,295.22
2019-05-20T11:19:12.197Z,295.51
2019-05-20T11:20:12.178Z,294.81
2019-05-20T11:21:12.173Z,295.08
2019-05-20T11:22:12.145Z,295.97
2019-05-20T11:23:12.147Z,294.96
2019-05-20T11:24:12.146Z,296.11
2019-05-20T11:25:12.114Z,295.89
2019-05-20T11:26:12.104Z,297.11
2019-05-20T11:27:12.098Z,296.80
2019-05-20T11:28:12.332Z,296.77
2019-05-20T11:29:12.130Z,297.22
2019-05-20T11:30:12.072Z,297.94
2019-05-20T11:31:12.065Z,297.48
2019-05-20T11:32:12.051Z,297.56
2019-05-20T11:33:12.056Z,298.49
2019-05-20T11:34:12.043Z,297.80
2019-05-20T11:35:12.016Z,298.86
2019-05-20T11:36:12.006Z,299.06
2019-05-20T11:37:12.001Z,298.51
2019-05-20T11:38:12.008Z,298.56
2019-05-20T11:39:11.985Z,298.94
2019-05-20T11:40:12.674Z,299.12
2019-05-20T11:41:11.972Z,299.06
2019-05-20T11:42:11.947Z,299.46
2019-05-20T11:43:11.946Z,299.59
2019-05-20T11:44:12.169Z,299.30
2019-05-20T11:45:11.914Z,299.80
2019-05-20T11:46:11.892Z,300.09
2019-05-20T11:47:11.894Z,300.11
2019-05-20T11:48:11.904Z,299.88
2019-05-20T11:49:11.878Z,299.92
2019-05-20T11:50:11.863Z,300.39
2019-05-20T11:51:11.844Z,300.31
2019-05-20T11:52:11.844Z,300.82
2019-05-20T11:53:11.813Z,300.58
2019-05-20T11:54:11.806Z,300.61
2019-05-20T11:55:11.814Z,300.71
2019-05-20T11:56:12.190Z,301.23
2019-05-20T11:57:11.775Z,300.79
2019-05-20T11:58:16.426Z,301.16
2019-05-20T11:59:11.748Z,301.60
2019-05-20T12:00:11.756Z,301.60
2019-05-20T12:01:11.742Z,301.83
2019-05-20T12:02:11.730Z,302.11
2019-05-20T12:03:11.713Z,301.41
2019-05-20T12:04:11.717Z,300.96
2019-05-20T12:05:11.703Z,301.75
2019-05-20T12:06:11.708Z,301.40
2019-05-20T12:07:11.666Z,300.60
2019-05-20T12:08:11.677Z,300.89
2019-05-20T12:09:11.656Z,301.25
2019-05-20T12:10:11.660Z,301.15
2019-05-20T12:11:11.630Z,301.02
2019-05-20T12:12:11.619Z,300.89
2019-05-20T12:13:11.624Z,301.39
2019-05-20T12:14:11.609Z,301.58
2019-05-20T12:15:11.600Z,301.64
2019-05-20T12:16:11.584Z,301.59
2019-05-20T12:17:11.569Z,301.90
2019-05-20T12:18:11.551Z,301.93
2019-05-20T12:19:11.547Z,302.30
2019-05-20T12:20:12.752Z,302.46
2019-05-20T12:21:11.528Z,301.18
2019-05-20T12:22:11.515Z,302.04
2019-05-20T12:23:11.506Z,302.15
2019-05-20T12:24:11.495Z,301.79
2019-05-20T12:25:11.490Z,301.76
2019-05-20T12:26:11.472Z,301.92
2019-05-20T12:27:11.459Z,302.22
2019-05-20T12:28:11.465Z,302.13